Time;durP1;ratioP1;P1;durP2;ratioP2;P2;SDS_P1;SDS_P2;PMS_P1;PMS_P2;Temp;Humidity;BMP_temperature;BMP_pressure;BME280_temperature;BME280_humidity;BME280_pressure;Samples;Min_cycle;Max_cycle;Signal;HPM_P1;HPM_P2
2024/03/25 00:00:31;;;;;;;3.35;2.35;;;;;;;;;;10358809;28;20036;-62
2024/03/25 00:05:32;;;;;;;3.13;2.22;;;;;;;;;;10355654;28;20409;-62
2024/03/25 00:10:32;;;;;;;4.63;2.67;;;;;;;;;;10355203;28;20049;-62
2024/03/25 00:15:34;;;;;;;3.85;1.92;;;;;;;;;;10359020;28;20062;-62
2024/03/25 00:20:34;;;;;;;2.63;2.17;;;;;;;;;;10353907;28;20030;-63
2024/03/25 00:25:35;;;;;;;2.47;2.00;;;;;;;;;;10354820;28;20030;-63
2024/03/25 00:30:35;;;;;;;8.85;2.63;;;;;;;;;;10355031;28;20057;-63
2024/03/25 00:35:36;;;;;;;3.05;1.90;;;;;;;;;;10378298;28;20037;-61
2024/03/25 00:40:37;;;;;;;3.58;2.30;;;;;;;;;;10361719;28;20025;-63
2024/03/25 00:45:38;;;;;;;3.75;2.50;;;;;;;;;;10356728;28;20034;-63
2024/03/25 00:50:38;;;;;;;3.35;2.03;;;;;;;;;;10361373;28;20057;-62
2024/03/25 00:55:39;;;;;;;3.38;2.45;;;;;;;;;;10354171;28;20441;-63
2024/03/25 01:00:39;;;;;;;3.95;2.20;;;;;;;;;;10347538;28;20474;-63
2024/03/25 01:05:40;;;;;;;4.00;2.55;;;;;;;;;;10346377;28;20440;-62
2024/03/25 01:10:40;;;;;;;4.45;2.20;;;;;;;;;;10351514;28;20410;-62
2024/03/25 01:15:42;;;;;;;4.00;2.78;;;;;;;;;;10353833;28;20390;-62
2024/03/25 01:20:42;;;;;;;3.22;2.00;;;;;;;;;;10347092;28;20073;-62
2024/03/25 01:25:43;;;;;;;4.25;2.20;;;;;;;;;;10346355;28;20048;-62
2024/03/25 01:30:43;;;;;;;3.53;2.30;;;;;;;;;;10350291;28;20057;-63
2024/03/25 01:35:44;;;;;;;3.28;2.08;;;;;;;;;;10344951;28;20737;-63
2024/03/25 01:40:45;;;;;;;3.85;2.58;;;;;;;;;;10357260;28;20038;-61
2024/03/25 01:45:45;;;;;;;6.15;2.20;;;;;;;;;;10359263;28;20030;-63
2024/03/25 01:50:46;;;;;;;2.60;2.30;;;;;;;;;;10366327;28;20030;-64
2024/03/25 01:55:48;;;;;;;2.58;2.03;;;;;;;;;;10364946;28;20049;-64
2024/03/25 02:00:50;;;;;;;3.22;2.10;;;;;;;;;;10352289;28;20030;-62
2024/03/25 02:05:58;;;;;;;2.80;1.80;;;;;;;;;;10345325;28;20046;-63
2024/03/25 02:10:59;;;;;;;2.83;1.73;;;;;;;;;;10357416;28;20042;-63
2024/03/25 02:16:00;;;;;;;3.03;1.75;;;;;;;;;;10358299;28;20026;-64
2024/03/25 02:21:01;;;;;;;4.00;2.05;;;;;;;;;;10364881;28;20057;-63
2024/03/25 02:26:01;;;;;;;5.60;1.90;;;;;;;;;;10349510;28;20056;-61
2024/03/25 02:31:02;;;;;;;3.40;2.05;;;;;;;;;;10360436;28;20413;-63
2024/03/25 02:36:03;;;;;;;2.92;1.70;;;;;;;;;;10353059;28;20104;-61
2024/03/25 02:41:04;;;;;;;3.22;1.92;;;;;;;;;;10375293;28;20034;-63
2024/03/25 02:46:05;;;;;;;4.45;2.10;;;;;;;;;;10353188;28;20052;-62
2024/03/25 02:51:05;;;;;;;3.17;2.17;;;;;;;;;;10354266;28;20074;-62
2024/03/25 02:56:06;;;;;;;1.95;1.75;;;;;;;;;;10359611;28;20489;-63
2024/03/25 03:01:07;;;;;;;2.88;1.75;;;;;;;;;;10353177;28;20030;-66
2024/03/25 03:06:08;;;;;;;1.73;1.63;;;;;;;;;;10347691;28;20037;-62
2024/03/25 03:11:09;;;;;;;3.05;1.90;;;;;;;;;;10359425;28;20139;-64
2024/03/25 03:16:09;;;;;;;2.95;1.83;;;;;;;;;;10362517;28;20220;-63
2024/03/25 03:21:10;;;;;;;2.83;2.08;;;;;;;;;;10346607;28;20030;-63
2024/03/25 03:26:10;;;;;;;2.53;1.98;;;;;;;;;;10349548;28;20022;-63
2024/03/25 03:31:11;;;;;;;3.38;2.15;;;;;;;;;;10363565;28;20026;-64
2024/03/25 03:36:11;;;;;;;2.28;1.80;;;;;;;;;;10352876;28;20026;-60
2024/03/25 03:41:13;;;;;;;2.15;1.80;;;;;;;;;;10364401;28;20037;-63
2024/03/25 03:46:13;;;;;;;3.75;2.05;;;;;;;;;;10361739;28;20469;-63
2024/03/25 03:51:14;;;;;;;3.40;2.00;;;;;;;;;;10363044;28;20116;-62
2024/03/25 03:56:15;;;;;;;2.65;2.00;;;;;;;;;;10361292;28;20555;-64
2024/03/25 04:01:18;;;;;;;1.83;1.73;;;;;;;;;;10356706;28;20358;-65
2024/03/25 04:06:19;;;;;;;2.03;1.83;;;;;;;;;;10359571;28;20038;-63
2024/03/25 04:11:19;;;;;;;2.17;1.55;;;;;;;;;;10363942;28;20033;-61
2024/03/25 04:16:21;;;;;;;1.80;1.60;;;;;;;;;;10358494;28;20040;-62
2024/03/25 04:21:22;;;;;;;2.22;2.00;;;;;;;;;;10350527;28;20034;-63
2024/03/25 04:26:23;;;;;;;2.35;1.83;;;;;;;;;;10357436;28;20057;-63
2024/03/25 04:31:24;;;;;;;2.70;2.03;;;;;;;;;;10347307;28;20041;-63
2024/03/25 04:36:24;;;;;;;2.60;1.70;;;;;;;;;;10354941;28;20087;-60
2024/03/25 04:41:25;;;;;;;3.10;1.83;;;;;;;;;;10361472;28;20104;-63
2024/03/25 04:46:25;;;;;;;2.50;1.90;;;;;;;;;;10360428;28;20033;-62
2024/03/25 04:51:26;;;;;;;3.22;1.50;;;;;;;;;;10354174;28;20038;-63
2024/03/25 04:56:27;;;;;;;1.92;1.77;;;;;;;;;;10355591;28;20042;-64
2024/03/25 05:01:28;;;;;;;1.98;1.60;;;;;;;;;;10352442;28;20025;-63
2024/03/25 05:06:28;;;;;;;1.67;1.58;;;;;;;;;;10361537;28;20048;-64
2024/03/25 05:11:29;;;;;;;2.40;1.65;;;;;;;;;;10356141;28;20038;-64
2024/03/25 05:16:30;;;;;;;1.92;1.42;;;;;;;;;;10362351;28;20486;-64
2024/03/25 05:21:31;;;;;;;2.13;1.70;;;;;;;;;;10365296;28;20490;-62
2024/03/25 05:26:32;;;;;;;2.75;2.17;;;;;;;;;;10362238;28;20030;-65
2024/03/25 05:31:32;;;;;;;3.83;1.77;;;;;;;;;;10348075;28;20042;-65
2024/03/25 05:36:33;;;;;;;1.67;1.58;;;;;;;;;;10367715;28;20221;-60
2024/03/25 05:41:33;;;;;;;1.50;1.40;;;;;;;;;;10358408;28;20037;-60
2024/03/25 05:46:35;;;;;;;1.92;1.67;;;;;;;;;;10367315;28;20049;-61
2024/03/25 05:51:36;;;;;;;1.88;1.63;;;;;;;;;;10359420;28;20032;-59
2024/03/25 05:56:37;;;;;;;2.60;2.30;;;;;;;;;;10364907;28;20038;-59
2024/03/25 06:01:39;;;;;;;2.42;1.60;;;;;;;;;;10359134;28;20034;-59
2024/03/25 06:06:39;;;;;;;2.15;1.80;;;;;;;;;;10362021;28;20121;-61
2024/03/25 06:11:40;;;;;;;2.10;1.60;;;;;;;;;;10361698;28;20437;-60
2024/03/25 06:16:41;;;;;;;1.90;1.70;;;;;;;;;;10365625;28;20363;-61
2024/03/25 06:21:42;;;;;;;2.17;1.60;;;;;;;;;;10366332;28;20037;-59
2024/03/25 06:26:43;;;;;;;2.53;1.50;;;;;;;;;;10349705;28;20030;-61
2024/03/25 06:37:04;;;;;;;1.45;1.35;;;;;;;;;;10358397;28;20045;-62
2024/03/25 06:42:05;;;;;;;1.65;1.55;;;;;;;;;;10356429;28;20391;-64
2024/03/25 06:47:05;;;;;;;6.22;1.90;;;;;;;;;;10349412;28;20030;-66
2024/03/25 06:52:06;;;;;;;3.47;1.88;;;;;;;;;;10354473;28;20069;-61
2024/03/25 06:57:06;;;;;;;2.38;1.70;;;;;;;;;;10360772;28;20045;-65
2024/03/25 07:02:07;;;;;;;2.45;1.85;;;;;;;;;;10363680;28;20034;-62
2024/03/25 07:07:08;;;;;;;7.38;2.60;;;;;;;;;;10342037;28;20087;-62
2024/03/25 07:12:09;;;;;;;16.58;3.03;;;;;;;;;;10366006;28;20541;-63
2024/03/25 07:17:09;;;;;;;6.15;2.65;;;;;;;;;;10361036;28;20023;-59
2024/03/25 07:22:10;;;;;;;5.53;2.42;;;;;;;;;;10343825;28;20037;-62
2024/03/25 07:27:11;;;;;;;7.40;3.30;;;;;;;;;;10333968;28;20030;-62
2024/03/25 07:32:11;;;;;;;7.00;2.42;;;;;;;;;;10350098;28;20045;-62
2024/03/25 07:37:12;;;;;;;3.40;2.13;;;;;;;;;;10354071;28;20037;-63
2024/03/25 07:42:13;;;;;;;7.90;2.28;;;;;;;;;;10340965;28;20378;-63
2024/03/25 07:47:14;;;;;;;5.65;2.25;;;;;;;;;;10356595;28;20391;-62
2024/03/25 07:52:15;;;;;;;4.60;2.05;;;;;;;;;;10364466;28;20034;-62
2024/03/25 07:57:15;;;;;;;6.82;2.20;;;;;;;;;;10342670;28;20046;-62
2024/03/25 08:02:16;;;;;;;4.88;2.47;;;;;;;;;;10340250;28;20030;-62
2024/03/25 08:07:16;;;;;;;5.03;2.35;;;;;;;;;;10348685;28;20034;-60
2024/03/25 08:12:17;;;;;;;5.70;2.40;;;;;;;;;;10358450;28;20103;-60
2024/03/25 08:17:17;;;;;;;5.55;2.40;;;;;;;;;;10358466;28;20022;-63
2024/03/25 08:22:19;;;;;;;5.40;2.38;;;;;;;;;;10354310;28;20029;-60
2024/03/25 08:27:20;;;;;;;6.80;2.20;;;;;;;;;;10345583;28;20033;-59
2024/03/25 08:32:23;;;;;;;3.63;2.05;;;;;;;;;;10358007;28;20022;-59
2024/03/25 08:37:24;;;;;;;6.05;2.13;;;;;;;;;;10352131;28;20116;-59
2024/03/25 08:42:25;;;;;;;6.90;1.90;;;;;;;;;;10339932;28;20088;-62
2024/03/25 08:47:26;;;;;;;8.15;2.00;;;;;;;;;;10354514;28;20466;-59
2024/03/25 08:52:26;;;;;;;5.40;2.15;;;;;;;;;;10360988;28;20017;-61
2024/03/25 08:57:28;;;;;;;3.03;1.80;;;;;;;;;;10332127;28;20026;-61
2024/03/25 09:02:28;;;;;;;3.60;1.80;;;;;;;;;;10357820;28;20037;-60
2024/03/25 09:07:29;;;;;;;2.55;1.88;;;;;;;;;;10355493;28;20406;-62
2024/03/25 09:12:29;;;;;;;4.57;2.00;;;;;;;;;;10356501;28;20445;-60
2024/03/25 09:17:31;;;;;;;9.73;2.00;;;;;;;;;;10350334;28;20390;-61
2024/03/25 09:22:32;;;;;;;5.95;2.67;;;;;;;;;;10354781;28;20026;-63
2024/03/25 09:27:32;;;;;;;1.67;1.58;;;;;;;;;;10361910;28;20026;-62
2024/03/25 09:32:33;;;;;;;5.78;1.70;;;;;;;;;;10347361;28;20462;-61
2024/03/25 09:37:33;;;;;;;4.15;2.00;;;;;;;;;;10353644;28;20030;-61
2024/03/25 09:42:49;;;;;;;3.20;2.08;;;;;;;;;;10352728;28;20038;-60
2024/03/25 09:47:51;;;;;;;4.80;1.80;;;;;;;;;;10349051;28;20108;-60
2024/03/25 09:52:52;;;;;;;3.22;1.77;;;;;;;;;;10358671;28;20081;-60
2024/03/25 09:57:53;;;;;;;7.68;2.03;;;;;;;;;;10359752;28;20578;-61
2024/03/25 10:02:54;;;;;;;8.40;2.10;;;;;;;;;;10339506;28;20034;-60
2024/03/25 10:07:55;;;;;;;4.32;1.83;;;;;;;;;;10361463;28;20026;-62
2024/03/25 10:12:55;;;;;;;2.13;1.92;;;;;;;;;;10362252;28;20040;-60
2024/03/25 10:17:56;;;;;;;3.55;1.80;;;;;;;;;;10354761;28;20088;-59
2024/03/25 10:22:57;;;;;;;2.60;1.65;;;;;;;;;;10366879;28;20030;-60
2024/03/25 10:28:00;;;;;;;4.15;2.10;;;;;;;;;;10365051;28;20029;-61
2024/03/25 10:33:05;;;;;;;5.05;2.13;;;;;;;;;;10368185;28;20133;-60
2024/03/25 10:38:10;;;;;;;5.35;2.30;;;;;;;;;;10346854;28;20039;-61
2024/03/25 10:43:13;;;;;;;2.67;2.10;;;;;;;;;;10360395;28;20467;-60
2024/03/25 10:48:31;;;;;;;2.72;1.70;;;;;;;;;;10358793;28;20318;-60
2024/03/25 10:53:35;;;;;;;4.03;1.73;;;;;;;;;;10364086;28;20050;-59
2024/03/25 10:58:36;;;;;;;4.28;1.70;;;;;;;;;;10354904;28;20030;-60
2024/03/25 11:03:37;;;;;;;4.18;2.08;;;;;;;;;;10366055;28;20026;-60
2024/03/25 11:08:38;;;;;;;3.88;1.63;;;;;;;;;;10348911;28;20573;-61
2024/03/25 11:13:39;;;;;;;2.90;1.95;;;;;;;;;;10361410;28;20077;-60
2024/03/25 11:18:51;;;;;;;2.10;1.80;;;;;;;;;;10361287;28;20034;-59
2024/03/25 11:23:51;;;;;;;2.70;1.73;;;;;;;;;;10354696;28;20069;-60
2024/03/25 11:28:53;;;;;;;2.78;1.58;;;;;;;;;;10359804;28;20053;-59
2024/03/25 11:33:54;;;;;;;1.83;1.73;;;;;;;;;;10366374;28;20077;-60
2024/03/25 11:39:09;;;;;;;3.08;1.77;;;;;;;;;;10366536;28;20098;-60
2024/03/25 11:44:14;;;;;;;2.15;1.67;;;;;;;;;;10352675;28;20044;-60
2024/03/25 11:49:17;;;;;;;4.30;1.77;;;;;;;;;;10351826;28;20038;-59
2024/03/25 11:54:18;;;;;;;2.20;1.67;;;;;;;;;;10363243;28;20410;-60
2024/03/25 11:59:19;;;;;;;1.60;1.40;;;;;;;;;;10360627;28;20437;-60
2024/03/25 12:04:22;;;;;;;2.85;1.63;;;;;;;;;;10361480;28;20034;-60
2024/03/25 12:14:42;;;;;;;2.28;1.80;;;;;;;;;;10357536;28;20026;-60
2024/03/25 12:19:42;;;;;;;3.05;1.70;;;;;;;;;;10350111;28;20022;-59
2024/03/25 12:24:49;;;;;;;2.40;1.58;;;;;;;;;;10348927;28;20026;-60
2024/03/25 12:30:03;;;;;;;3.53;1.90;;;;;;;;;;10354738;28;20045;-60
2024/03/25 12:35:24;;;;;;;2.05;1.75;;;;;;;;;;10357806;28;20022;-60
2024/03/25 12:40:27;;;;;;;2.63;1.70;;;;;;;;;;10353270;28;20489;-59
2024/03/25 12:45:28;;;;;;;2.25;1.50;;;;;;;;;;10357686;28;20069;-59
2024/03/25 12:50:30;;;;;;;1.63;1.50;;;;;;;;;;10355665;28;20528;-61
2024/03/25 12:55:30;;;;;;;2.13;1.48;;;;;;;;;;10352307;28;20042;-60
2024/03/25 13:00:31;;;;;;;1.83;1.40;;;;;;;;;;10353726;28;20034;-59
2024/03/25 13:05:32;;;;;;;2.47;1.83;;;;;;;;;;10358029;28;20030;-59
2024/03/25 13:10:34;;;;;;;2.67;1.50;;;;;;;;;;10362817;28;20410;-60
2024/03/25 13:15:35;;;;;;;3.53;1.70;;;;;;;;;;10360144;28;20041;-60
2024/03/25 13:20:35;;;;;;;2.25;1.70;;;;;;;;;;10361034;28;20037;-60
2024/03/25 13:25:36;;;;;;;4.13;1.90;;;;;;;;;;10349975;28;20022;-61
2024/03/25 13:30:37;;;;;;;2.65;1.88;;;;;;;;;;10353456;28;20390;-59
2024/03/25 13:35:38;;;;;;;6.57;1.90;;;;;;;;;;10359677;28;20041;-61
2024/03/25 13:40:38;;;;;;;1.80;1.60;;;;;;;;;;10364125;28;20026;-60
2024/03/25 13:45:48;;;;;;;5.47;1.67;;;;;;;;;;10369162;28;20022;-59
2024/03/25 13:50:49;;;;;;;2.40;1.85;;;;;;;;;;10353610;28;20486;-59
2024/03/25 13:55:49;;;;;;;2.35;1.70;;;;;;;;;;10369469;28;20054;-61
2024/03/25 14:00:50;;;;;;;2.08;1.70;;;;;;;;;;10359749;28;20022;-60
2024/03/25 14:05:50;;;;;;;2.25;1.60;;;;;;;;;;10357423;28;20080;-60
2024/03/25 14:11:02;;;;;;;2.45;1.52;;;;;;;;;;10367265;28;20037;-59
2024/03/25 14:16:03;;;;;;;3.53;2.00;;;;;;;;;;10367367;28;20428;-60
2024/03/25 14:21:04;;;;;;;7.47;1.58;;;;;;;;;;10353184;28;20087;-59
2024/03/25 14:26:04;;;;;;;1.90;1.33;;;;;;;;;;10365052;28;20446;-60
2024/03/25 14:31:06;;;;;;;2.25;1.80;;;;;;;;;;10369062;28;20044;-59
2024/03/25 14:36:06;;;;;;;1.80;1.40;;;;;;;;;;10353074;28;20513;-60
2024/03/25 14:41:07;;;;;;;1.92;1.63;;;;;;;;;;10362216;28;20064;-61
2024/03/25 14:46:08;;;;;;;1.98;1.60;;;;;;;;;;10335272;28;20109;-61
2024/03/25 14:51:09;;;;;;;3.95;1.85;;;;;;;;;;10354840;28;20021;-60
2024/03/25 14:56:09;;;;;;;5.53;1.40;;;;;;;;;;10361226;28;20057;-60
2024/03/25 15:01:10;;;;;;;2.08;1.50;;;;;;;;;;10356469;28;20060;-60
2024/03/25 15:06:11;;;;;;;2.17;1.65;;;;;;;;;;10357107;28;20040;-60
2024/03/25 15:11:11;;;;;;;1.67;1.50;;;;;;;;;;10355336;28;20068;-60
2024/03/25 15:16:12;;;;;;;1.20;1.17;;;;;;;;;;10355954;28;20034;-59
2024/03/25 15:21:12;;;;;;;2.88;1.50;;;;;;;;;;10356113;28;20254;-59
2024/03/25 15:26:13;;;;;;;1.98;1.40;;;;;;;;;;10363724;28;20064;-59
2024/03/25 15:31:14;;;;;;;2.15;1.45;;;;;;;;;;10365140;28;20037;-59
2024/03/25 15:36:14;;;;;;;1.73;1.50;;;;;;;;;;10357840;28;20025;-59
2024/03/25 15:41:15;;;;;;;2.67;1.88;;;;;;;;;;10357155;28;20027;-59
2024/03/25 15:46:16;;;;;;;2.03;1.40;;;;;;;;;;10346885;28;20382;-59
2024/03/25 15:51:17;;;;;;;1.30;1.20;;;;;;;;;;10353747;28;20026;-59
2024/03/25 15:56:18;;;;;;;1.60;1.40;;;;;;;;;;10351437;28;20057;-59
2024/03/25 16:01:19;;;;;;;1.80;1.52;;;;;;;;;;10361774;28;20037;-59
2024/03/25 16:06:19;;;;;;;3.80;1.85;;;;;;;;;;10341474;28;20037;-59
2024/03/25 16:11:20;;;;;;;2.38;1.50;;;;;;;;;;10363378;28;20040;-59
2024/03/25 16:16:21;;;;;;;2.25;1.60;;;;;;;;;;10352671;28;20467;-60
2024/03/25 16:21:23;;;;;;;5.47;1.67;;;;;;;;;;10345258;28;20034;-59
2024/03/25 16:26:24;;;;;;;1.60;1.50;;;;;;;;;;10351684;28;20415;-59
2024/03/25 16:31:25;;;;;;;1.55;1.40;;;;;;;;;;10348293;28;20300;-59
2024/03/25 16:36:25;;;;;;;1.90;1.52;;;;;;;;;;10361999;28;20065;-59
2024/03/25 16:41:26;;;;;;;3.63;1.50;;;;;;;;;;10359093;28;20196;-59
2024/03/25 16:46:26;;;;;;;2.28;1.30;;;;;;;;;;10358969;28;20034;-59
2024/03/25 16:51:27;;;;;;;2.45;1.55;;;;;;;;;;10359322;28;20030;-60
2024/03/25 16:56:28;;;;;;;1.77;1.63;;;;;;;;;;10348122;28;20490;-59
2024/03/25 17:01:28;;;;;;;1.67;1.48;;;;;;;;;;10362271;28;20378;-59
2024/03/25 17:06:29;;;;;;;2.97;1.67;;;;;;;;;;10361244;28;20019;-59
2024/03/25 17:11:29;;;;;;;2.05;1.50;;;;;;;;;;10350122;28;20026;-59
2024/03/25 17:16:32;;;;;;;1.63;1.45;;;;;;;;;;10349851;28;20029;-60
2024/03/25 17:21:32;;;;;;;2.85;1.30;;;;;;;;;;10346797;28;20037;-59
2024/03/25 17:26:34;;;;;;;1.75;1.55;;;;;;;;;;10363359;28;20022;-59
2024/03/25 17:31:35;;;;;;;5.28;1.30;;;;;;;;;;10362687;28;20505;-59
2024/03/25 17:36:35;;;;;;;1.92;1.60;;;;;;;;;;10344552;28;20037;-59
2024/03/25 17:41:36;;;;;;;1.50;1.40;;;;;;;;;;10356785;28;20018;-60
2024/03/25 17:46:37;;;;;;;17.98;1.77;;;;;;;;;;10344600;28;20061;-58
2024/03/25 17:51:37;;;;;;;7.78;1.83;;;;;;;;;;10345889;28;20038;-59
2024/03/25 17:56:38;;;;;;;1.52;1.42;;;;;;;;;;10344731;28;20050;-59
2024/03/25 18:01:39;;;;;;;1.67;1.40;;;;;;;;;;10348572;28;20137;-59
2024/03/25 18:06:39;;;;;;;1.95;1.73;;;;;;;;;;10354775;28;20030;-59
2024/03/25 18:11:40;;;;;;;1.60;1.50;;;;;;;;;;10352107;28;20045;-59
2024/03/25 18:16:41;;;;;;;2.75;1.48;;;;;;;;;;10350427;28;20413;-59
2024/03/25 18:21:42;;;;;;;2.13;1.50;;;;;;;;;;10346566;28;20068;-59
2024/03/25 18:26:43;;;;;;;2.78;1.48;;;;;;;;;;10349633;28;20026;-59
2024/03/25 18:31:43;;;;;;;2.10;1.50;;;;;;;;;;10360332;28;20123;-59
2024/03/25 18:36:44;;;;;;;2.38;1.83;;;;;;;;;;10362426;28;20030;-59
2024/03/25 18:41:45;;;;;;;1.67;1.45;;;;;;;;;;10355825;28;20033;-59
2024/03/25 18:46:45;;;;;;;1.55;1.45;;;;;;;;;;10363330;28;20386;-59
2024/03/25 18:51:46;;;;;;;2.53;1.48;;;;;;;;;;10361376;28;20036;-59
2024/03/25 18:56:47;;;;;;;1.42;1.33;;;;;;;;;;10360432;28;20107;-60
2024/03/25 19:01:47;;;;;;;3.22;1.67;;;;;;;;;;10364772;28;20340;-60
2024/03/25 19:06:48;;;;;;;2.30;1.40;;;;;;;;;;10364261;28;20384;-60
2024/03/25 19:11:49;;;;;;;6.85;1.80;;;;;;;;;;10362849;28;20525;-60
2024/03/25 19:16:49;;;;;;;2.78;1.40;;;;;;;;;;10358012;28;20061;-60
2024/03/25 19:21:50;;;;;;;4.00;1.73;;;;;;;;;;10347256;28;20042;-60
2024/03/25 19:26:51;;;;;;;1.63;1.52;;;;;;;;;;10345784;28;20026;-60
2024/03/25 19:31:51;;;;;;;3.50;2.00;;;;;;;;;;10345473;28;20120;-61
2024/03/25 19:36:52;;;;;;;3.40;2.00;;;;;;;;;;10349022;28;20037;-60
2024/03/25 19:41:53;;;;;;;2.97;1.90;;;;;;;;;;10356764;28;20500;-60
2024/03/25 19:46:54;;;;;;;2.78;2.13;;;;;;;;;;10349246;28;20041;-60
2024/03/25 19:51:54;;;;;;;2.40;2.08;;;;;;;;;;10354346;28;20037;-60
2024/03/25 19:56:55;;;;;;;7.10;2.13;;;;;;;;;;10360909;28;20053;-60
2024/03/25 20:01:55;;;;;;;3.85;2.22;;;;;;;;;;10356888;28;20073;-61
2024/03/25 20:06:58;;;;;;;4.63;1.88;;;;;;;;;;10353430;28;20031;-60
2024/03/25 20:11:58;;;;;;;4.25;2.00;;;;;;;;;;10358026;28;20030;-60
2024/03/25 20:16:59;;;;;;;7.72;1.85;;;;;;;;;;10362231;28;20034;-60
2024/03/25 20:22:00;;;;;;;2.03;1.80;;;;;;;;;;10351824;28;20037;-60
2024/03/25 20:27:00;;;;;;;2.10;1.85;;;;;;;;;;10354095;28;20026;-60
2024/03/25 20:32:02;;;;;;;4.43;1.92;;;;;;;;;;10353919;28;20069;-59
2024/03/25 20:37:02;;;;;;;3.75;1.70;;;;;;;;;;10362344;28;20034;-60
2024/03/25 20:42:04;;;;;;;3.63;2.05;;;;;;;;;;10359339;28;20030;-60
2024/03/25 20:47:04;;;;;;;3.38;1.90;;;;;;;;;;10353750;28;20201;-61
2024/03/25 20:52:05;;;;;;;5.15;2.15;;;;;;;;;;10341752;28;20136;-60
2024/03/25 20:57:06;;;;;;;1.73;1.63;;;;;;;;;;10342855;28;20733;-60
2024/03/25 21:02:06;;;;;;;3.70;1.60;;;;;;;;;;10362632;28;20056;-60
2024/03/25 21:07:07;;;;;;;3.20;1.92;;;;;;;;;;10342831;28;20026;-61
2024/03/25 21:12:08;;;;;;;3.53;1.92;;;;;;;;;;10352300;28;20029;-61
2024/03/25 21:17:08;;;;;;;5.03;2.58;;;;;;;;;;10359420;28;20026;-61
2024/03/25 21:22:09;;;;;;;6.68;3.13;;;;;;;;;;10351141;28;20114;-61
2024/03/25 21:27:10;;;;;;;8.02;2.50;;;;;;;;;;10352816;28;20426;-62
2024/03/25 21:32:11;;;;;;;4.97;2.30;;;;;;;;;;10359584;28;20025;-61
2024/03/25 21:37:11;;;;;;;5.97;2.30;;;;;;;;;;10344947;28;20026;-63
2024/03/25 21:42:12;;;;;;;3.83;2.25;;;;;;;;;;10361243;28;20076;-60
2024/03/25 21:47:12;;;;;;;8.27;2.33;;;;;;;;;;10348078;28;20042;-59
2024/03/25 21:52:13;;;;;;;18.02;2.85;;;;;;;;;;10346596;28;20084;-63
2024/03/25 21:57:13;;;;;;;6.50;2.45;;;;;;;;;;10356516;28;20045;-60
2024/03/25 22:02:14;;;;;;;6.90;2.10;;;;;;;;;;10365832;28;20021;-60
2024/03/25 22:07:15;;;;;;;15.98;2.53;;;;;;;;;;10360913;28;20034;-60
2024/03/25 22:12:16;;;;;;;7.63;2.13;;;;;;;;;;10356080;28;20315;-60
2024/03/25 22:17:17;;;;;;;8.38;2.25;;;;;;;;;;10358626;28;20029;-60
2024/03/25 22:22:17;;;;;;;5.65;2.22;;;;;;;;;;10364118;28;20493;-62
2024/03/25 22:27:18;;;;;;;3.30;1.50;;;;;;;;;;10369625;28;20508;-61
2024/03/25 22:32:18;;;;;;;4.25;2.00;;;;;;;;;;10357513;28;20483;-63
2024/03/25 22:37:19;;;;;;;9.32;2.28;;;;;;;;;;10347824;28;20093;-60
2024/03/25 22:42:20;;;;;;;6.20;2.08;;;;;;;;;;10344426;28;20501;-61
2024/03/25 22:47:20;;;;;;;6.70;2.72;;;;;;;;;;10365936;28;20030;-62
2024/03/25 22:52:21;;;;;;;6.15;2.00;;;;;;;;;;10343724;28;20042;-61
2024/03/25 22:57:21;;;;;;;5.88;2.20;;;;;;;;;;10362568;28;20096;-63
2024/03/25 23:02:22;;;;;;;5.90;1.85;;;;;;;;;;10355895;28;20029;-64
2024/03/25 23:07:23;;;;;;;7.65;2.13;;;;;;;;;;10362679;28;20422;-63
2024/03/25 23:12:25;;;;;;;3.50;2.05;;;;;;;;;;10353722;28;20040;-64
2024/03/25 23:17:25;;;;;;;3.17;2.10;;;;;;;;;;10345789;28;20488;-64
2024/03/25 23:22:26;;;;;;;8.90;2.10;;;;;;;;;;10360789;28;20037;-62
2024/03/25 23:27:27;;;;;;;5.97;2.10;;;;;;;;;;10365044;28;20033;-64
2024/03/25 23:32:27;;;;;;;5.47;2.00;;;;;;;;;;10367308;28;20030;-63
2024/03/25 23:37:28;;;;;;;5.03;2.40;;;;;;;;;;10354943;28;20391;-60
2024/03/25 23:42:28;;;;;;;8.05;2.40;;;;;;;;;;10357689;28;20037;-63
2024/03/25 23:47:32;;;;;;;3.25;2.10;;;;;;;;;;10356834;28;20038;-63
2024/03/25 23:52:33;;;;;;;3.08;1.73;;;;;;;;;;10362031;28;20033;-63
2024/03/25 23:57:34;;;;;;;3.95;2.10;;;;;;;;;;10353798;28;20482;-60
